createdAt,value
2019-01-13T00:00:13.457Z,11.40
2019-01-13T00:02:41.908Z,15.23
2019-01-13T00:05:10.530Z,12.60
2019-01-13T00:07:38.976Z,10.53
2019-01-13T00:10:08.042Z,13.73
2019-01-13T00:12:36.451Z,14.30
2019-01-13T00:15:07.937Z,13.07
2019-01-13T00:17:36.411Z,15.03
2019-01-13T00:20:08.032Z,11.43
2019-01-13T00:22:36.481Z,13.70
2019-01-13T00:25:06.523Z,18.13
2019-01-13T00:27:35.008Z,16.60
2019-01-13T00:30:05.533Z,14.83
2019-01-13T00:32:33.963Z,13.80
2019-01-13T00:35:02.375Z,16.10
2019-01-13T00:37:30.824Z,15.83
2019-01-13T00:39:59.236Z,11.63
2019-01-13T00:42:27.687Z,16.80
2019-01-13T00:44:56.177Z,10.33
2019-01-13T00:47:24.614Z,13.83
2019-01-13T00:49:53.042Z,13.23
2019-01-13T00:52:21.448Z,8.90
2019-01-13T00:54:49.850Z,9.03
2019-01-13T00:57:18.316Z,9.67
2019-01-13T00:59:46.712Z,16.93
2019-01-13T01:02:15.182Z,12.43
2019-01-13T01:04:43.605Z,11.90
2019-01-13T01:07:12.140Z,9.63
2019-01-13T01:09:40.713Z,11.23
2019-01-13T01:12:09.183Z,9.03
2019-01-13T01:14:37.594Z,16.03
2019-01-13T01:17:06.074Z,10.10
2019-01-13T01:19:34.496Z,8.47
2019-01-13T01:22:02.929Z,10.70
2019-01-13T01:24:31.363Z,6.97
2019-01-13T01:26:59.766Z,8.80
2019-01-13T01:29:28.368Z,8.33
2019-01-13T01:31:56.780Z,6.17
2019-01-13T01:34:25.201Z,5.43
2019-01-13T01:36:54.293Z,10.93
2019-01-13T01:39:22.802Z,4.47
2019-01-13T01:41:51.282Z,5.03
2019-01-13T01:44:19.724Z,5.73
2019-01-13T01:46:48.218Z,9.17
2019-01-13T01:49:16.645Z,5.50
2019-01-13T01:51:45.737Z,7.47
2019-01-13T01:54:14.199Z,3.43
2019-01-13T01:56:42.592Z,6.10
2019-01-13T01:59:11.033Z,4.73
2019-01-13T02:01:39.541Z,4.40
2019-01-13T02:04:08.000Z,5.80
2019-01-13T02:06:36.931Z,7.27
2019-01-13T02:09:07.291Z,8.83
2019-01-13T02:11:35.762Z,5.97
2019-01-13T02:14:04.277Z,12.63
2019-01-13T02:16:32.747Z,5.03
2019-01-13T02:19:01.153Z,7.63
2019-01-13T02:21:29.624Z,7.77
2019-01-13T02:23:58.087Z,7.67
2019-01-13T02:26:26.486Z,10.10
2019-01-13T02:28:54.911Z,4.93
2019-01-13T02:31:23.404Z,9.17
2019-01-13T02:33:51.833Z,9.03
2019-01-13T02:36:20.256Z,9.17
2019-01-13T02:38:48.682Z,12.93
2019-01-13T02:41:17.097Z,10.50
2019-01-13T02:43:45.585Z,9.70
2019-01-13T02:46:14.002Z,6.23
2019-01-13T02:48:42.428Z,9.37
2019-01-13T02:51:10.998Z,7.10
2019-01-13T02:53:39.417Z,12.97
2019-01-13T02:56:07.816Z,17.00
2019-01-13T02:58:36.244Z,11.90
2019-01-13T03:01:04.662Z,9.47
2019-01-13T03:03:33.105Z,12.90
2019-01-13T03:06:01.600Z,13.17
2019-01-13T03:08:30.012Z,14.60
2019-01-13T03:10:58.595Z,7.77
2019-01-13T03:13:27.025Z,15.40
2019-01-13T03:15:55.435Z,11.60
2019-01-13T03:18:23.889Z,15.83
2019-01-13T03:20:52.869Z,13.57
2019-01-13T03:23:21.274Z,12.60
2019-01-13T03:25:49.734Z,10.47
2019-01-13T03:28:18.120Z,14.70
2019-01-13T03:30:46.568Z,11.53
2019-01-13T03:33:15.014Z,13.33
2019-01-13T03:35:44.230Z,17.50
2019-01-13T03:38:12.662Z,17.50
2019-01-13T03:40:41.078Z,11.77
2019-01-13T03:43:09.645Z,17.37
2019-01-13T03:45:38.090Z,15.53
2019-01-13T03:48:06.579Z,12.77
2019-01-13T03:50:35.000Z,11.70
2019-01-13T03:53:03.433Z,14.47
2019-01-13T03:55:31.851Z,16.43
2019-01-13T03:58:00.298Z,16.30
2019-01-13T04:00:28.711Z,14.67
2019-01-13T04:02:57.142Z,16.13
2019-01-13T04:05:25.555Z,9.17
2019-01-13T04:07:54.840Z,17.67
2019-01-13T04:10:23.357Z,9.17
2019-01-13T04:12:51.800Z,18.53
2019-01-13T04:15:35.126Z,20.03
2019-01-13T04:18:03.686Z,16.70
2019-01-13T04:20:32.119Z,13.00
2019-01-13T04:23:00.419Z,11.73
2019-01-13T04:25:28.915Z,14.97
2019-01-13T04:27:57.434Z,14.47
2019-01-13T04:30:25.863Z,15.63
2019-01-13T04:32:54.299Z,12.47
2019-01-13T04:35:22.737Z,9.80
2019-01-13T04:37:51.180Z,14.03
2019-01-13T04:40:19.598Z,13.00
2019-01-13T04:42:48.000Z,12.80
2019-01-13T04:45:16.536Z,15.50
2019-01-13T04:47:45.013Z,16.00
2019-01-13T04:50:15.604Z,8.93
2019-01-13T04:52:44.020Z,9.70
2019-01-13T04:55:12.978Z,12.30
2019-01-13T04:57:41.794Z,7.43
2019-01-13T05:00:15.900Z,16.53
2019-01-13T05:02:44.380Z,11.07
2019-01-13T05:05:12.987Z,6.83
2019-01-13T05:07:41.457Z,14.73
2019-01-13T05:10:12.953Z,11.20
2019-01-13T05:12:41.390Z,15.07
2019-01-13T05:15:09.935Z,8.43
2019-01-13T05:17:38.851Z,11.83
2019-01-13T05:20:10.656Z,11.30
2019-01-13T05:22:39.066Z,8.93
2019-01-13T05:25:08.540Z,8.43
2019-01-13T05:27:37.025Z,5.47
2019-01-13T05:30:11.503Z,11.23
2019-01-13T05:32:39.928Z,13.90
2019-01-13T05:35:08.515Z,11.50
2019-01-13T05:37:36.940Z,6.37
2019-01-13T05:40:08.461Z,5.30
2019-01-13T05:42:36.830Z,11.00
2019-01-13T05:45:08.491Z,7.60
2019-01-13T05:47:36.924Z,12.57
2019-01-13T05:50:08.294Z,10.60
2019-01-13T05:52:37.922Z,12.50
2019-01-13T05:55:08.632Z,16.67
2019-01-13T05:57:37.758Z,10.20
2019-01-13T06:00:21.481Z,8.27
2019-01-13T06:02:49.903Z,11.10
2019-01-13T06:05:18.403Z,13.90
2019-01-13T06:07:46.891Z,9.63
2019-01-13T06:10:17.781Z,12.47
2019-01-13T06:12:46.352Z,5.40
2019-01-13T06:15:17.570Z,10.67
2019-01-13T06:17:46.011Z,7.07
2019-01-13T06:20:16.903Z,5.10
2019-01-13T06:22:45.445Z,9.90
2019-01-13T06:25:14.838Z,11.50
2019-01-13T06:27:43.251Z,10.43
2019-01-13T06:30:15.034Z,11.20
2019-01-13T06:32:43.561Z,7.57
2019-01-13T06:35:12.028Z,8.67
2019-01-13T06:37:40.480Z,9.17
2019-01-13T06:40:12.300Z,7.83
2019-01-13T06:42:40.722Z,10.37
2019-01-13T06:45:12.359Z,6.03
2019-01-13T06:47:40.858Z,8.13
2019-01-13T06:50:12.601Z,5.07
2019-01-13T06:52:41.212Z,6.13
2019-01-13T06:55:11.460Z,5.47
2019-01-13T06:57:40.612Z,4.30
2019-01-13T07:00:23.138Z,8.67
2019-01-13T07:02:51.566Z,8.03
2019-01-13T07:05:20.067Z,11.00
2019-01-13T07:07:48.473Z,7.87
2019-01-13T07:10:16.937Z,12.03
2019-01-13T07:12:45.421Z,12.13
2019-01-13T07:15:18.730Z,8.97
2019-01-13T07:17:47.152Z,10.70
2019-01-13T07:20:19.463Z,12.43
2019-01-13T07:22:48.308Z,6.57
2019-01-13T07:25:16.915Z,12.17
2019-01-13T07:27:45.487Z,10.50
2019-01-13T07:30:16.669Z,20.40
2019-01-13T07:32:45.179Z,12.20
2019-01-13T07:35:13.646Z,8.60
2019-01-13T07:37:42.121Z,8.47
2019-01-13T07:40:13.883Z,12.53
2019-01-13T07:42:43.447Z,7.97
2019-01-13T07:45:14.668Z,20.07
2019-01-13T07:47:43.094Z,13.53
2019-01-13T07:50:14.478Z,14.03
2019-01-13T07:52:43.055Z,16.23
2019-01-13T07:55:14.230Z,13.40
2019-01-13T07:57:43.260Z,11.83
2019-01-13T08:00:14.716Z,15.13
2019-01-13T08:02:43.258Z,14.17
2019-01-13T08:05:11.735Z,9.67
2019-01-13T08:07:40.141Z,13.43
2019-01-13T08:10:14.359Z,12.43
2019-01-13T08:12:42.941Z,11.70
2019-01-13T08:15:16.953Z,9.63
2019-01-13T08:17:45.722Z,7.47
2019-01-13T08:20:20.180Z,6.80
2019-01-13T08:22:48.654Z,7.10
2019-01-13T08:25:17.190Z,8.30
2019-01-13T08:27:45.593Z,5.80
2019-01-13T08:30:17.087Z,9.10
2019-01-13T08:32:45.635Z,8.43
2019-01-13T08:35:14.138Z,7.73
2019-01-13T08:37:42.536Z,6.53
2019-01-13T08:40:16.710Z,7.03
2019-01-13T08:42:45.119Z,6.97
2019-01-13T08:45:14.003Z,4.77
2019-01-13T08:47:42.434Z,6.73
2019-01-13T08:50:19.755Z,4.87
2019-01-13T08:52:48.379Z,4.40
2019-01-13T08:55:17.027Z,5.33
2019-01-13T08:57:46.172Z,4.87
2019-01-13T09:00:30.837Z,5.87
2019-01-13T09:02:59.356Z,3.37
2019-01-13T09:05:27.867Z,3.83
2019-01-13T09:07:56.247Z,3.73
2019-01-13T09:10:24.765Z,3.73
2019-01-13T09:12:56.901Z,2.07
2019-01-13T09:15:25.330Z,3.23
2019-01-13T09:17:53.882Z,2.80
2019-01-13T09:20:24.931Z,2.10
2019-01-13T09:22:53.400Z,3.27
2019-01-13T09:25:22.001Z,3.80
2019-01-13T09:27:50.452Z,2.00
2019-01-13T09:30:23.999Z,2.47
2019-01-13T09:32:52.434Z,2.47
2019-01-13T09:35:20.923Z,2.20
2019-01-13T09:37:49.427Z,2.60
2019-01-13T09:40:23.570Z,2.37
2019-01-13T09:42:52.142Z,2.60
2019-01-13T09:45:20.635Z,3.87
2019-01-13T09:47:49.132Z,3.87
2019-01-13T09:50:20.225Z,3.03
2019-01-13T09:52:48.726Z,3.00
2019-01-13T09:55:19.380Z,3.43
2019-01-13T09:57:47.883Z,4.03
2019-01-13T10:00:22.344Z,3.63
2019-01-13T10:02:50.867Z,3.30
2019-01-13T10:05:19.310Z,3.57
2019-01-13T10:07:47.829Z,3.43
2019-01-13T10:10:16.426Z,3.47
2019-01-13T10:12:44.978Z,3.70
2019-01-13T10:15:16.673Z,4.93
2019-01-13T10:17:45.082Z,4.57
2019-01-13T10:20:15.259Z,3.33
2019-01-13T10:22:43.739Z,3.33
2019-01-13T10:25:12.920Z,3.73
2019-01-13T10:27:41.336Z,3.83
2019-01-13T10:30:20.356Z,3.60
2019-01-13T10:32:54.711Z,3.30
2019-01-13T10:35:19.121Z,3.20
2019-01-13T10:37:47.680Z,4.57
2019-01-13T10:40:18.818Z,2.83
2019-01-13T10:42:47.670Z,3.83
2019-01-13T10:45:18.055Z,2.73
2019-01-13T10:47:46.549Z,4.40
2019-01-13T10:50:18.239Z,4.60
2019-01-13T10:52:46.806Z,2.63
2019-01-13T10:55:17.386Z,3.17
2019-01-13T10:57:46.247Z,2.83
2019-01-13T11:00:20.485Z,2.40
2019-01-13T11:02:49.070Z,2.60
2019-01-13T11:05:17.558Z,2.60
2019-01-13T11:07:46.442Z,2.57
2019-01-13T11:10:16.941Z,3.97
2019-01-13T11:12:45.727Z,2.60
2019-01-13T11:15:21.548Z,2.43
2019-01-13T11:17:47.241Z,2.77
2019-01-13T11:20:27.556Z,4.70
2019-01-13T11:22:56.076Z,2.53
2019-01-13T11:25:24.521Z,3.23
2019-01-13T11:27:52.932Z,2.17
2019-01-13T11:30:23.955Z,2.77
2019-01-13T11:32:52.387Z,2.67
2019-01-13T11:35:21.011Z,2.50
2019-01-13T11:37:50.251Z,3.20
2019-01-13T11:40:24.585Z,2.00
2019-01-13T11:42:53.083Z,2.73
2019-01-13T11:45:21.654Z,2.70
2019-01-13T11:47:50.129Z,2.00
2019-01-13T11:50:20.835Z,3.47
2019-01-13T11:52:49.244Z,2.67
2019-01-13T11:55:18.342Z,2.37
2019-01-13T11:57:46.939Z,2.13
2019-01-13T12:00:21.046Z,2.57
2019-01-13T12:02:49.544Z,1.70
2019-01-13T12:05:18.274Z,2.00
2019-01-13T12:07:47.007Z,2.73
2019-01-13T12:10:20.462Z,1.93
2019-01-13T12:12:49.659Z,2.20
2019-01-13T12:15:22.395Z,2.37
2019-01-13T12:17:50.820Z,2.57
2019-01-13T12:20:24.368Z,1.80
2019-01-13T12:22:52.851Z,1.60
2019-01-13T12:25:23.372Z,1.60
2019-01-13T12:27:52.555Z,1.90
2019-01-13T12:30:29.251Z,2.37
2019-01-13T12:32:58.226Z,1.40
2019-01-13T12:35:26.660Z,3.00
2019-01-13T12:37:55.087Z,2.13
2019-01-13T12:40:25.845Z,1.53
2019-01-13T12:42:54.329Z,1.30
2019-01-13T12:45:23.809Z,1.30
2019-01-13T12:47:52.825Z,1.37
2019-01-13T12:50:26.728Z,1.40
2019-01-13T12:52:55.224Z,2.70
2019-01-13T12:55:23.678Z,1.33
2019-01-13T12:57:52.167Z,1.30
2019-01-13T13:00:21.959Z,1.87
2019-01-13T13:02:50.442Z,1.20
2019-01-13T13:05:19.311Z,2.10
2019-01-13T13:07:48.248Z,1.50
2019-01-13T13:10:19.751Z,1.53
2019-01-13T13:12:48.167Z,1.63
2019-01-13T13:15:16.690Z,3.23
2019-01-13T13:17:45.113Z,1.30
2019-01-13T13:20:17.450Z,1.20
2019-01-13T13:22:45.973Z,1.70
2019-01-13T13:25:15.043Z,1.13
2019-01-13T13:27:43.554Z,1.20
2019-01-13T13:30:20.757Z,2.97
2019-01-13T13:32:49.390Z,1.40
2019-01-13T13:35:18.251Z,1.40
2019-01-13T13:37:47.101Z,2.70
2019-01-13T13:40:18.456Z,1.20
2019-01-13T13:42:49.009Z,1.10
2019-01-13T13:45:17.746Z,1.30
2019-01-13T13:47:46.840Z,1.03
2019-01-13T13:50:18.289Z,1.20
2019-01-13T13:52:51.402Z,1.40
2019-01-13T13:55:19.860Z,1.43
2019-01-13T13:57:48.479Z,1.13
2019-01-13T14:00:24.221Z,5.50
2019-01-13T14:02:52.704Z,1.57
2019-01-13T14:05:21.175Z,1.30
2019-01-13T14:07:49.666Z,1.40
2019-01-13T14:10:24.066Z,1.40
2019-01-13T14:12:52.562Z,2.43
2019-01-13T14:15:21.412Z,1.27
2019-01-13T14:17:50.653Z,3.00
2019-01-13T14:20:20.563Z,1.33
2019-01-13T14:22:49.077Z,1.93
2019-01-13T14:25:17.570Z,1.27
2019-01-13T14:27:46.014Z,1.50
2019-01-13T14:30:17.210Z,1.60
2019-01-13T14:32:45.694Z,2.87
2019-01-13T14:35:14.664Z,1.60
2019-01-13T14:37:43.650Z,1.37
2019-01-13T14:40:18.083Z,1.50
2019-01-13T14:42:46.570Z,1.20
2019-01-13T14:45:17.799Z,2.53
2019-01-13T14:47:46.835Z,1.40
2019-01-13T14:50:23.990Z,1.37
2019-01-13T14:52:52.759Z,1.77
2019-01-13T14:55:21.202Z,2.33
2019-01-13T14:57:49.722Z,2.23
2019-01-13T15:00:23.797Z,1.57
2019-01-13T15:02:52.357Z,1.80
2019-01-13T15:05:21.034Z,2.00
2019-01-13T15:07:49.570Z,1.80
2019-01-13T15:10:20.504Z,1.60
2019-01-13T15:12:49.325Z,1.60
2019-01-13T15:15:17.915Z,4.20
2019-01-13T15:17:46.425Z,2.53
2019-01-13T15:20:19.870Z,1.53
2019-01-13T15:22:49.456Z,1.37
2019-01-13T15:25:24.007Z,1.40
2019-01-13T15:27:52.448Z,1.50
2019-01-13T15:30:26.534Z,1.27
2019-01-13T15:32:54.954Z,1.93
2019-01-13T15:35:23.411Z,1.40
2019-01-13T15:37:51.882Z,1.70
2019-01-13T15:40:21.670Z,1.40
2019-01-13T15:42:50.381Z,1.47
2019-01-13T15:45:19.827Z,1.47
2019-01-13T15:47:48.351Z,2.53
2019-01-13T15:50:22.227Z,1.40
2019-01-13T15:52:50.748Z,1.97
2019-01-13T15:55:19.394Z,1.63
2019-01-13T15:57:47.876Z,1.50
2019-01-13T16:00:19.469Z,1.50
2019-01-13T16:02:47.983Z,1.47
2019-01-13T16:05:16.677Z,1.30
2019-01-13T16:07:45.240Z,1.40
2019-01-13T16:10:19.128Z,4.83
2019-01-13T16:12:47.711Z,1.37
2019-01-13T16:15:16.294Z,2.63
2019-01-13T16:17:44.878Z,2.17
2019-01-13T16:20:25.657Z,1.43
2019-01-13T16:22:54.157Z,1.50
2019-01-13T16:25:22.561Z,2.50
2019-01-13T16:27:51.030Z,1.50
2019-01-13T16:30:23.986Z,2.03
2019-01-13T16:32:52.707Z,1.70
2019-01-13T16:35:21.406Z,2.30
2019-01-13T16:37:49.862Z,1.47
2019-01-13T16:40:20.572Z,1.50
2019-01-13T16:42:49.096Z,2.47
2019-01-13T16:45:18.629Z,1.70
2019-01-13T16:47:48.445Z,1.40
2019-01-13T16:50:18.978Z,1.70
2019-01-13T16:52:49.823Z,2.30
2019-01-13T16:55:19.130Z,1.70
2019-01-13T16:57:47.538Z,2.53
2019-01-13T17:00:24.439Z,3.13
2019-01-13T17:02:52.926Z,3.23
2019-01-13T17:05:22.957Z,2.63
2019-01-13T17:07:51.520Z,2.40
2019-01-13T17:10:21.990Z,5.00
2019-01-13T17:12:50.493Z,8.33
2019-01-13T17:15:24.238Z,5.97
2019-01-13T17:17:52.642Z,5.93
2019-01-13T17:20:24.261Z,4.67
2019-01-13T17:22:52.799Z,9.43
2019-01-13T17:25:26.066Z,7.20
2019-01-13T17:27:54.646Z,4.90
2019-01-13T17:30:28.354Z,4.20
2019-01-13T17:32:56.758Z,5.43
2019-01-13T17:35:25.257Z,1.83
2019-01-13T17:37:53.685Z,2.37
2019-01-13T17:40:24.343Z,5.77
2019-01-13T17:42:53.355Z,6.40
2019-01-13T17:45:24.613Z,6.80
2019-01-13T17:47:53.267Z,4.07
2019-01-13T17:50:23.900Z,5.17
2019-01-13T17:52:52.537Z,5.93
2019-01-13T17:55:23.494Z,5.83
2019-01-13T17:57:52.036Z,7.40
2019-01-13T18:00:41.399Z,9.23
2019-01-13T18:03:18.788Z,10.47
2019-01-13T18:05:47.255Z,7.57
2019-01-13T18:08:15.708Z,7.40
2019-01-13T18:10:44.134Z,9.30
2019-01-13T18:13:12.619Z,10.80
2019-01-13T18:15:41.160Z,10.63
2019-01-13T18:18:10.770Z,10.80
2019-01-13T18:20:39.309Z,12.07
2019-01-13T18:23:07.843Z,11.07
2019-01-13T18:25:36.345Z,13.37
2019-01-13T18:28:04.991Z,8.63
2019-01-13T18:30:33.446Z,7.23
2019-01-13T18:33:02.004Z,11.53
2019-01-13T18:35:30.718Z,11.37
2019-01-13T18:37:59.158Z,9.80
2019-01-13T18:40:27.687Z,13.67
2019-01-13T18:42:56.143Z,14.90
2019-01-13T18:45:24.582Z,17.93
2019-01-13T18:47:53.056Z,13.67
2019-01-13T18:50:23.554Z,13.10
2019-01-13T18:53:06.962Z,14.50
2019-01-13T18:55:35.423Z,17.87
2019-01-13T18:58:04.396Z,13.13
2019-01-13T19:00:33.652Z,10.60
2019-01-13T19:03:03.361Z,16.27
2019-01-13T19:05:31.949Z,14.13
2019-01-13T19:08:01.642Z,16.10
2019-01-13T19:10:50.016Z,13.27
2019-01-13T19:13:27.414Z,12.33
2019-01-13T19:15:58.346Z,20.30
2019-01-13T19:18:26.822Z,19.07
2019-01-13T19:20:55.374Z,15.80
2019-01-13T19:23:25.977Z,10.50
2019-01-13T19:25:54.410Z,17.77
2019-01-13T19:28:22.891Z,15.63
2019-01-13T19:30:51.305Z,19.40
2019-01-13T19:33:19.780Z,8.97
2019-01-13T19:35:48.207Z,11.20
2019-01-13T19:38:16.659Z,5.97
2019-01-13T19:40:45.169Z,10.30
2019-01-13T19:43:13.606Z,5.33
2019-01-13T19:45:42.027Z,12.10
2019-01-13T19:48:11.596Z,5.30
2019-01-13T19:50:40.028Z,8.90
2019-01-13T19:53:09.008Z,8.30
2019-01-13T19:55:37.491Z,11.53
2019-01-13T19:58:05.953Z,8.80
2019-01-13T20:00:34.825Z,5.77
2019-01-13T20:03:03.438Z,9.90
2019-01-13T20:05:32.010Z,7.73
2019-01-13T20:08:00.750Z,8.73
2019-01-13T20:10:29.340Z,9.83
2019-01-13T20:12:57.784Z,4.43
2019-01-13T20:15:26.249Z,14.93
2019-01-13T20:17:54.732Z,18.20
2019-01-13T20:20:23.722Z,15.10
2019-01-13T20:22:52.730Z,15.07
2019-01-13T20:25:21.453Z,12.43
2019-01-13T20:27:49.985Z,11.27
2019-01-13T20:30:21.333Z,7.80
2019-01-13T20:32:49.956Z,11.60
2019-01-13T20:35:19.487Z,13.23
2019-01-13T20:37:48.371Z,11.17
2019-01-13T20:40:18.039Z,10.67
2019-01-13T20:42:47.194Z,11.23
2019-01-13T20:45:21.465Z,12.07
2019-01-13T20:47:50.272Z,13.10
2019-01-13T20:50:18.811Z,14.60
2019-01-13T20:52:47.281Z,17.70
2019-01-13T20:55:16.472Z,8.67
2019-01-13T20:57:45.131Z,9.23
2019-01-13T21:00:21.855Z,17.07
2019-01-13T21:02:50.380Z,10.83
2019-01-13T21:05:26.311Z,10.47
2019-01-13T21:07:50.066Z,22.20
2019-01-13T21:10:20.142Z,19.17
2019-01-13T21:12:49.208Z,21.10
2019-01-13T21:15:32.738Z,15.03
2019-01-13T21:18:01.176Z,17.00
2019-01-13T21:20:29.682Z,21.00
2019-01-13T21:22:58.326Z,20.80
2019-01-13T21:25:26.882Z,17.70
2019-01-13T21:27:57.012Z,17.77
2019-01-13T21:30:28.250Z,14.53
2019-01-13T21:32:56.814Z,21.80
2019-01-13T21:35:25.454Z,23.13
2019-01-13T21:37:54.340Z,18.03
2019-01-13T21:40:22.930Z,23.50
2019-01-13T21:42:51.476Z,16.67
2019-01-13T21:45:22.651Z,14.37
2019-01-13T21:47:51.162Z,16.63
2019-01-13T21:50:24.941Z,12.60
2019-01-13T21:52:54.139Z,18.57
2019-01-13T21:55:22.646Z,12.80
2019-01-13T21:57:51.324Z,20.47
2019-01-13T22:00:23.369Z,19.90
2019-01-13T22:02:52.192Z,22.77
2019-01-13T22:05:20.710Z,20.47
2019-01-13T22:07:49.621Z,14.67
2019-01-13T22:10:20.442Z,17.13
2019-01-13T22:12:48.963Z,11.67
2019-01-13T22:15:19.333Z,18.03
2019-01-13T22:17:47.876Z,15.27
2019-01-13T22:20:23.569Z,26.77
2019-01-13T22:22:53.433Z,16.90
2019-01-13T22:25:22.361Z,22.60
2019-01-13T22:27:50.879Z,20.03
2019-01-13T22:30:23.657Z,20.47
2019-01-13T22:32:52.216Z,22.27
2019-01-13T22:35:20.647Z,25.40
2019-01-13T22:37:55.598Z,18.27
2019-01-13T22:40:19.960Z,14.47
2019-01-13T22:42:48.477Z,25.30
2019-01-13T22:45:21.983Z,9.70
2019-01-13T22:47:50.571Z,11.00
2019-01-13T22:50:20.535Z,13.43
2019-01-13T22:52:49.814Z,14.60
2019-01-13T22:55:18.267Z,14.40
2019-01-13T22:57:47.236Z,12.23
2019-01-13T23:00:20.353Z,13.47
2019-01-13T23:02:48.802Z,13.13
2019-01-13T23:05:17.692Z,12.93
2019-01-13T23:07:46.148Z,13.43
2019-01-13T23:10:14.562Z,9.43
2019-01-13T23:12:42.983Z,10.27
2019-01-13T23:15:11.632Z,12.57
2019-01-13T23:17:40.115Z,13.10
2019-01-13T23:20:10.319Z,14.13
2019-01-13T23:22:38.732Z,15.97
2019-01-13T23:25:07.231Z,14.60
2019-01-13T23:27:35.698Z,9.90
2019-01-13T23:30:06.965Z,15.07
2019-01-13T23:32:35.377Z,19.37
2019-01-13T23:35:04.402Z,19.40
2019-01-13T23:37:32.882Z,12.60
2019-01-13T23:40:01.322Z,9.93
2019-01-13T23:42:29.785Z,22.33
2019-01-13T23:44:58.180Z,10.73
2019-01-13T23:47:26.585Z,25.53
2019-01-13T23:49:55.045Z,23.30
2019-01-13T23:52:23.472Z,26.43
2019-01-13T23:54:51.909Z,17.87
2019-01-13T23:57:20.424Z,13.97
2019-01-13T23:59:48.863Z,17.40
